createdAt,value
2018-03-12T00:01:54.289Z,4.33
2018-03-12T00:04:21.791Z,4.60
2018-03-12T00:06:50.043Z,4.77
2018-03-12T00:09:17.560Z,4.40
2018-03-12T00:11:45.056Z,4.30
2018-03-12T00:14:12.569Z,3.93
2018-03-12T00:16:40.052Z,4.07
2018-03-12T00:19:08.342Z,3.80
2018-03-12T00:21:36.587Z,4.10
2018-03-12T00:24:04.092Z,3.80
2018-03-12T00:26:31.571Z,3.77
2018-03-12T00:28:59.853Z,4.60
2018-03-12T00:31:27.338Z,4.03
2018-03-12T00:33:54.861Z,5.00
2018-03-12T00:36:22.390Z,4.30
2018-03-12T00:38:49.902Z,4.50
2018-03-12T00:41:17.388Z,4.70
2018-03-12T00:43:44.913Z,4.37
2018-03-12T00:46:12.404Z,4.57
2018-03-12T00:48:40.691Z,4.57
2018-03-12T00:51:08.175Z,4.20
2018-03-12T00:53:35.711Z,4.33
2018-03-12T00:56:03.207Z,4.30
2018-03-12T00:58:30.716Z,3.87
2018-03-12T01:00:58.193Z,3.90
2018-03-12T01:03:25.703Z,3.80
2018-03-12T01:05:53.194Z,3.93
2018-03-12T01:08:20.737Z,3.87
2018-03-12T01:10:48.224Z,5.20
2018-03-12T01:13:15.756Z,4.30
2018-03-12T01:15:43.245Z,4.20
2018-03-12T01:18:10.771Z,4.37
2018-03-12T01:20:38.263Z,4.20
2018-03-12T01:23:05.788Z,4.13
2018-03-12T01:25:33.274Z,4.23
2018-03-12T01:28:00.788Z,4.50
2018-03-12T01:30:29.039Z,4.33
2018-03-12T01:32:56.551Z,4.07
2018-03-12T01:35:24.042Z,3.73
2018-03-12T01:37:51.555Z,4.80
2018-03-12T01:40:19.143Z,4.77
2018-03-12T01:42:46.673Z,4.47
2018-03-12T01:45:14.165Z,4.37
2018-03-12T01:47:41.683Z,4.80
2018-03-12T01:50:09.219Z,4.93
2018-03-12T01:52:48.380Z,4.87
2018-03-12T01:55:16.631Z,4.50
2018-03-12T01:57:44.149Z,4.90
2018-03-12T02:00:12.406Z,4.60
2018-03-12T02:02:39.915Z,4.70
2018-03-12T02:05:08.170Z,4.37
2018-03-12T02:07:35.697Z,4.47
2018-03-12T02:10:03.177Z,4.80
2018-03-12T02:12:30.700Z,4.70
2018-03-12T02:14:58.186Z,4.80
2018-03-12T02:17:26.481Z,5.30
2018-03-12T02:19:54.736Z,5.33
2018-03-12T02:22:22.252Z,5.23
2018-03-12T02:24:49.735Z,5.23
2018-03-12T02:27:17.247Z,5.77
2018-03-12T02:29:44.734Z,5.37
2018-03-12T02:32:13.020Z,5.50
2018-03-12T02:34:40.499Z,6.30
2018-03-12T02:37:08.011Z,5.73
2018-03-12T02:39:35.492Z,5.40
2018-03-12T02:42:03.001Z,4.87
2018-03-12T02:44:30.495Z,5.37
2018-03-12T02:46:58.797Z,5.67
2018-03-12T02:49:26.308Z,5.10
2018-03-12T02:51:53.787Z,4.73
2018-03-12T02:54:21.269Z,4.63
2018-03-12T02:56:48.774Z,4.40
2018-03-12T02:59:17.019Z,5.40
2018-03-12T03:01:44.552Z,4.90
2018-03-12T03:04:12.048Z,4.60
2018-03-12T03:06:39.571Z,4.97
2018-03-12T03:09:07.827Z,4.50
2018-03-12T03:11:35.336Z,4.50
2018-03-12T03:14:02.823Z,4.80
2018-03-12T03:16:30.331Z,4.40
2018-03-12T03:18:57.818Z,4.30
2018-03-12T03:21:25.334Z,3.70
2018-03-12T03:23:52.831Z,4.70
2018-03-12T03:26:20.349Z,4.27
2018-03-12T03:28:48.604Z,5.27
2018-03-12T03:31:16.114Z,4.57
2018-03-12T03:33:44.360Z,4.77
2018-03-12T03:36:11.888Z,4.87
2018-03-12T03:38:39.375Z,5.33
2018-03-12T03:41:06.892Z,5.80
2018-03-12T03:43:34.380Z,6.47
2018-03-12T03:46:02.657Z,5.93
2018-03-12T03:48:30.155Z,5.07
2018-03-12T03:50:57.668Z,5.93
2018-03-12T03:53:25.151Z,6.17
2018-03-12T03:55:52.682Z,6.00
2018-03-12T03:58:20.167Z,5.93
2018-03-12T04:00:47.675Z,5.57
2018-03-12T04:03:15.152Z,6.90
2018-03-12T04:05:42.691Z,6.30
2018-03-12T04:08:10.164Z,5.90
2018-03-12T04:10:37.679Z,5.80
2018-03-12T04:13:05.181Z,6.60
2018-03-12T04:15:32.695Z,6.27
2018-03-12T04:18:00.180Z,5.77
2018-03-12T04:20:27.707Z,6.30
2018-03-12T04:22:55.199Z,5.70
2018-03-12T04:25:22.724Z,5.77
2018-03-12T04:27:50.211Z,6.07
2018-03-12T04:30:17.729Z,5.20
2018-03-12T04:32:45.218Z,5.93
2018-03-12T04:35:13.491Z,5.27
2018-03-12T04:37:41.002Z,6.67
2018-03-12T04:40:08.484Z,6.50
2018-03-12T04:42:35.996Z,6.10
2018-03-12T04:45:03.485Z,7.40
2018-03-12T04:47:30.999Z,5.60
2018-03-12T04:49:58.483Z,7.10
2018-03-12T04:52:26.017Z,6.87
2018-03-12T04:54:53.507Z,7.20
2018-03-12T04:57:21.022Z,6.50
2018-03-12T04:59:48.501Z,6.80
2018-03-12T05:02:16.009Z,7.37
2018-03-12T05:04:43.548Z,6.00
2018-03-12T05:07:11.068Z,6.40
2018-03-12T05:09:38.593Z,6.60
2018-03-12T05:12:06.099Z,5.97
2018-03-12T05:14:33.596Z,6.30
2018-03-12T05:17:01.115Z,6.37
2018-03-12T05:19:28.595Z,6.80
2018-03-12T05:21:56.872Z,7.03
2018-03-12T05:24:25.176Z,6.03
2018-03-12T05:26:52.684Z,6.37
2018-03-12T05:29:20.171Z,6.30
2018-03-12T05:31:47.688Z,6.30
2018-03-12T05:34:15.937Z,6.10
2018-03-12T05:36:43.450Z,7.37
2018-03-12T05:39:10.956Z,6.00
2018-03-12T05:41:38.460Z,6.90
2018-03-12T05:44:05.955Z,6.83
2018-03-12T05:46:34.243Z,6.53
2018-03-12T05:49:02.497Z,6.20
2018-03-12T05:51:30.014Z,6.53
2018-03-12T05:53:57.503Z,6.90
2018-03-12T05:56:25.044Z,6.70
2018-03-12T05:58:53.360Z,6.50
2018-03-12T06:01:21.289Z,7.40
2018-03-12T06:03:48.780Z,7.93
2018-03-12T06:06:16.287Z,8.40
2018-03-12T06:08:43.775Z,8.07
2018-03-12T06:11:12.012Z,8.07
2018-03-12T06:13:39.806Z,8.40
2018-03-12T06:16:08.138Z,8.20
2018-03-12T06:18:35.613Z,8.80
2018-03-12T06:21:03.143Z,9.00
2018-03-12T06:23:30.628Z,9.03
2018-03-12T06:25:58.145Z,8.30
2018-03-12T06:28:25.628Z,8.47
2018-03-12T06:30:53.158Z,8.80
2018-03-12T06:33:20.677Z,8.20
2018-03-12T06:35:49.175Z,9.33
2018-03-12T06:38:16.687Z,8.17
2018-03-12T06:40:44.206Z,10.20
2018-03-12T06:43:11.692Z,8.57
2018-03-12T06:45:39.223Z,8.73
2018-03-12T06:48:06.714Z,10.37
2018-03-12T06:50:34.589Z,10.40
2018-03-12T06:53:02.889Z,11.23
2018-03-12T06:55:30.432Z,10.83
2018-03-12T06:57:57.936Z,9.60
2018-03-12T07:00:25.460Z,10.90
2018-03-12T07:02:52.955Z,11.27
2018-03-12T07:05:20.485Z,11.43
2018-03-12T07:07:47.977Z,10.40
2018-03-12T07:10:15.495Z,11.53
2018-03-12T07:12:42.999Z,11.23
2018-03-12T07:15:10.516Z,10.57
2018-03-12T07:17:38.005Z,10.53
2018-03-12T07:20:05.572Z,11.07
2018-03-12T07:22:33.840Z,10.30
2018-03-12T07:25:01.362Z,10.27
2018-03-12T07:27:28.849Z,9.80
2018-03-12T07:29:57.037Z,10.50
2018-03-12T07:32:24.557Z,10.90
2018-03-12T07:34:52.105Z,10.20
2018-03-12T07:37:19.635Z,10.80
2018-03-12T07:39:47.140Z,10.50
2018-03-12T07:42:14.692Z,10.07
2018-03-12T07:44:42.371Z,10.33
2018-03-12T07:47:11.938Z,9.03
2018-03-12T07:52:27.272Z,9.27
2018-03-12T07:54:54.760Z,8.97
2018-03-12T07:57:23.054Z,9.07
2018-03-12T07:59:51.299Z,8.87
2018-03-12T08:02:18.818Z,9.40
2018-03-12T08:04:47.090Z,9.97
2018-03-12T08:07:15.376Z,8.33
2018-03-12T08:09:43.624Z,8.87
2018-03-12T08:12:11.145Z,9.53
2018-03-12T08:14:38.652Z,9.87
2018-03-12T08:17:06.178Z,10.00
2018-03-12T08:19:33.746Z,9.70
2018-03-12T08:22:01.236Z,9.67
2018-03-12T08:24:29.500Z,9.63
2018-03-12T08:26:57.015Z,8.70
2018-03-12T08:29:24.528Z,9.30
2018-03-12T08:31:52.045Z,8.73
2018-03-12T08:34:19.541Z,8.53
2018-03-12T08:36:47.072Z,10.30
2018-03-12T08:39:14.576Z,9.13
2018-03-12T08:41:42.160Z,8.73
2018-03-12T08:44:09.671Z,8.27
2018-03-12T08:46:37.195Z,7.80
2018-03-12T08:49:04.689Z,9.03
2018-03-12T08:51:32.220Z,8.20
2018-03-12T08:53:59.936Z,8.20
2018-03-12T08:56:27.469Z,9.07
2018-03-12T08:58:54.979Z,8.73
2018-03-12T09:01:22.499Z,8.67
2018-03-12T09:03:50.012Z,8.97
2018-03-12T09:06:17.704Z,8.53
2018-03-12T09:08:45.214Z,8.80
2018-03-12T09:11:13.499Z,8.97
2018-03-12T09:13:41.785Z,9.53
2018-03-12T09:16:11.056Z,8.60
2018-03-12T09:18:38.556Z,7.37
2018-03-12T09:21:06.115Z,8.13
2018-03-12T09:23:33.624Z,7.40
2018-03-12T09:26:03.147Z,7.30
2018-03-12T09:28:31.469Z,6.90
2018-03-12T09:30:59.003Z,6.73
2018-03-12T09:33:26.504Z,7.27
2018-03-12T09:35:54.036Z,7.70
2018-03-12T09:38:21.542Z,5.60
2018-03-12T09:40:49.055Z,6.30
2018-03-12T09:43:16.564Z,6.53
2018-03-12T09:45:44.864Z,6.87
2018-03-12T09:48:12.356Z,6.40
2018-03-12T09:50:39.913Z,5.73
2018-03-12T09:53:08.164Z,6.43
2018-03-12T09:55:35.688Z,6.43
2018-03-12T09:58:03.192Z,6.80
2018-03-12T10:00:30.716Z,5.00
2018-03-12T10:02:58.228Z,5.30
2018-03-12T10:05:25.744Z,5.13
2018-03-12T10:07:54.041Z,4.37
2018-03-12T10:10:21.588Z,4.10
2018-03-12T10:12:49.076Z,4.60
2018-03-12T10:15:17.373Z,4.13
2018-03-12T10:17:44.859Z,4.10
2018-03-12T10:20:12.371Z,4.13
2018-03-12T10:22:39.872Z,4.10
2018-03-12T10:25:08.156Z,4.27
2018-03-12T10:27:35.643Z,4.30
2018-03-12T10:30:03.928Z,4.80
2018-03-12T10:32:31.434Z,4.73
2018-03-12T10:34:58.958Z,4.10
2018-03-12T10:37:26.448Z,4.40
2018-03-12T10:39:54.725Z,4.10
2018-03-12T10:42:22.206Z,2.97
2018-03-12T10:44:49.728Z,3.00
2018-03-12T10:47:17.231Z,2.80
2018-03-12T10:49:44.752Z,2.60
2018-03-12T10:52:12.241Z,2.60
2018-03-12T10:54:39.767Z,3.03
2018-03-12T10:57:07.258Z,2.23
2018-03-12T10:59:34.782Z,1.70
2018-03-12T11:02:03.062Z,1.47
2018-03-12T11:04:33.411Z,1.60
2018-03-12T11:07:06.602Z,1.87
2018-03-12T11:09:34.128Z,1.90
2018-03-12T11:12:01.624Z,1.50
2018-03-12T11:14:29.152Z,1.40
2018-03-12T11:16:56.635Z,1.50
2018-03-12T11:19:24.160Z,1.87
2018-03-12T11:21:51.654Z,1.47
2018-03-12T11:24:19.939Z,1.00
2018-03-12T11:26:47.427Z,1.03
2018-03-12T11:29:14.975Z,0.90
2018-03-12T11:31:42.468Z,0.87
2018-03-12T11:34:10.723Z,1.77
2018-03-12T11:36:38.244Z,1.27
2018-03-12T11:39:05.759Z,1.07
2018-03-12T11:41:33.303Z,1.30
2018-03-12T11:44:00.799Z,1.10
2018-03-12T11:46:28.339Z,1.07
2018-03-12T11:48:55.886Z,1.27
2018-03-12T11:51:23.365Z,1.30
2018-03-12T11:53:50.873Z,0.83
2018-03-12T11:56:18.403Z,1.43
2018-03-12T11:58:46.660Z,1.07
2018-03-12T12:01:14.191Z,0.70
2018-03-12T12:03:41.685Z,1.00
2018-03-12T12:06:09.208Z,1.27
2018-03-12T12:08:36.700Z,0.57
2018-03-12T12:11:04.223Z,1.20
2018-03-12T12:13:31.726Z,1.33
2018-03-12T12:16:00.009Z,1.30
2018-03-12T12:18:28.259Z,0.70
2018-03-12T12:20:55.849Z,1.20
2018-03-12T12:23:23.282Z,1.40
2018-03-12T12:25:50.819Z,1.60
2018-03-12T12:28:18.303Z,1.20
2018-03-12T12:30:45.801Z,0.80
2018-03-12T12:33:13.312Z,1.00
2018-03-12T12:35:41.606Z,1.00
2018-03-12T12:38:09.892Z,1.10
2018-03-12T12:40:38.145Z,1.10
2018-03-12T12:43:05.672Z,1.90
2018-03-12T12:45:33.927Z,0.80
2018-03-12T12:48:01.453Z,1.10
2018-03-12T12:50:29.017Z,0.83
2018-03-12T12:52:56.494Z,0.90
2018-03-12T12:55:23.986Z,1.00
2018-03-12T12:57:51.505Z,1.10
2018-03-12T13:00:19.763Z,0.73
2018-03-12T13:02:47.281Z,1.00
2018-03-12T13:05:14.780Z,0.90
2018-03-12T13:07:42.301Z,0.87
2018-03-12T13:10:10.560Z,1.00
2018-03-12T13:12:38.085Z,1.30
2018-03-12T13:15:05.584Z,0.77
2018-03-12T13:17:33.095Z,0.80
2018-03-12T13:20:01.452Z,1.10
2018-03-12T13:22:28.972Z,0.70
2018-03-12T13:24:57.219Z,0.80
2018-03-12T13:27:24.731Z,0.67
2018-03-12T13:29:52.225Z,0.90
2018-03-12T13:32:19.751Z,0.83
2018-03-12T13:34:47.232Z,1.30
2018-03-12T13:37:15.732Z,0.80
2018-03-12T13:39:43.229Z,1.10
2018-03-12T13:42:10.759Z,0.93
2018-03-12T13:44:38.254Z,1.00
2018-03-12T13:47:05.800Z,0.90
2018-03-12T13:49:33.331Z,0.83
2018-03-12T13:52:00.864Z,0.90
2018-03-12T13:54:29.123Z,0.80
2018-03-12T13:56:56.648Z,1.10
2018-03-12T13:59:24.144Z,0.90
2018-03-12T14:01:51.765Z,1.00
2018-03-12T14:04:20.023Z,0.60
2018-03-12T14:06:47.544Z,1.40
2018-03-12T14:09:15.791Z,0.93
2018-03-12T14:11:43.312Z,1.00
2018-03-12T14:14:10.824Z,1.30
2018-03-12T14:16:38.332Z,1.03
2018-03-12T14:19:05.819Z,0.60
2018-03-12T14:21:34.111Z,1.03
2018-03-12T14:24:02.367Z,0.97
2018-03-12T14:26:29.856Z,1.03
2018-03-12T14:28:58.148Z,1.20
2018-03-12T14:31:26.399Z,1.50
2018-03-12T14:33:53.978Z,0.83
2018-03-12T14:36:21.540Z,0.80
2018-03-12T14:38:49.063Z,0.60
2018-03-12T14:41:16.555Z,0.70
2018-03-12T14:43:44.084Z,0.87
2018-03-12T14:46:11.580Z,0.63
2018-03-12T14:48:39.864Z,0.83
2018-03-12T14:51:07.356Z,0.80
2018-03-12T14:53:34.876Z,1.17
2018-03-12T14:56:02.363Z,0.80
2018-03-12T14:58:29.878Z,0.80
2018-03-12T15:00:57.367Z,0.90
2018-03-12T15:03:24.888Z,0.77
2018-03-12T15:05:53.139Z,0.80
2018-03-12T15:08:20.667Z,0.63
2018-03-12T15:10:48.192Z,0.60
2018-03-12T15:13:15.716Z,1.13
2018-03-12T15:15:43.200Z,0.60
2018-03-12T15:18:10.734Z,0.80
2018-03-12T15:20:38.991Z,0.97
2018-03-12T15:23:06.481Z,0.60
2018-03-12T15:25:34.013Z,0.67
2018-03-12T15:28:01.500Z,0.77
2018-03-12T15:30:29.020Z,0.97
2018-03-12T15:32:57.388Z,0.60
2018-03-12T15:35:24.887Z,0.77
2018-03-12T15:37:52.440Z,1.70
2018-03-12T15:40:20.704Z,0.70
2018-03-12T15:42:48.215Z,0.60
2018-03-12T15:45:15.707Z,0.43
2018-03-12T15:47:43.215Z,0.80
2018-03-12T15:50:10.695Z,1.10
2018-03-12T15:52:38.785Z,0.67
2018-03-12T15:55:07.052Z,0.50
2018-03-12T15:57:34.555Z,0.50
2018-03-12T16:00:02.056Z,0.60
2018-03-12T16:02:29.587Z,0.43
2018-03-12T16:04:57.084Z,0.93
2018-03-12T16:07:25.339Z,0.50
2018-03-12T16:09:52.873Z,0.80
2018-03-12T16:12:21.140Z,1.33
2018-03-12T16:14:48.652Z,1.30
2018-03-12T16:17:16.145Z,1.73
2018-03-12T16:19:43.675Z,1.63
2018-03-12T16:22:11.173Z,1.03
2018-03-12T16:24:38.715Z,1.90
2018-03-12T16:27:06.208Z,2.10
2018-03-12T16:29:33.748Z,1.90
2018-03-12T16:32:01.304Z,2.00
2018-03-12T16:34:28.776Z,1.80
2018-03-12T16:36:57.067Z,0.70
2018-03-12T16:39:25.352Z,1.00
2018-03-12T16:41:52.835Z,1.17
2018-03-12T16:44:20.353Z,1.23
2018-03-12T16:46:47.857Z,1.50
2018-03-12T16:49:16.140Z,1.50
2018-03-12T16:51:44.398Z,3.07
2018-03-12T16:54:11.940Z,1.10
2018-03-12T16:56:39.433Z,1.27
2018-03-12T16:59:06.961Z,1.20
2018-03-12T17:01:35.229Z,1.10
2018-03-12T17:04:02.741Z,1.10
2018-03-12T17:06:30.493Z,2.40
2018-03-12T17:09:09.034Z,2.00
2018-03-12T17:11:36.531Z,0.70
2018-03-12T17:14:04.066Z,0.87
2018-03-12T17:16:31.635Z,1.00
2018-03-12T17:18:59.171Z,1.10
2018-03-12T17:21:26.670Z,0.87
2018-03-12T17:23:54.976Z,1.00
2018-03-12T17:26:22.485Z,0.80
2018-03-12T17:28:50.003Z,1.03
2018-03-12T17:31:17.498Z,0.80
2018-03-12T17:33:45.024Z,0.90
2018-03-12T17:36:12.552Z,1.10
2018-03-12T17:38:40.069Z,0.90
2018-03-12T17:41:07.558Z,1.00
2018-03-12T17:43:35.855Z,0.83
2018-03-12T17:46:04.184Z,1.20
2018-03-12T17:48:31.697Z,1.27
2018-03-12T17:50:59.215Z,1.00
2018-03-12T17:53:28.109Z,0.80
2018-03-12T17:55:55.625Z,0.80
2018-03-12T17:58:23.152Z,0.50
2018-03-12T18:00:50.661Z,1.17
2018-03-12T18:03:18.160Z,1.10
2018-03-12T18:05:45.679Z,1.83
2018-03-12T18:08:13.175Z,1.17
2018-03-12T18:10:40.736Z,1.17
2018-03-12T18:13:08.254Z,0.97
2018-03-12T18:15:36.543Z,1.40
2018-03-12T18:18:04.026Z,1.17
2018-03-12T18:20:31.559Z,1.17
2018-03-12T18:22:59.060Z,0.90
2018-03-12T18:25:26.576Z,0.97
2018-03-12T18:27:54.096Z,0.90
2018-03-12T18:30:21.805Z,1.30
2018-03-12T18:32:49.342Z,1.30
2018-03-12T18:35:16.878Z,0.80
2018-03-12T18:37:44.374Z,1.00
2018-03-12T18:40:12.175Z,1.27
2018-03-12T18:42:39.691Z,1.20
2018-03-12T18:45:07.215Z,1.20
2018-03-12T18:47:34.716Z,1.03
2018-03-12T18:50:02.247Z,1.70
2018-03-12T18:52:29.736Z,1.50
2018-03-12T18:54:58.036Z,4.47
2018-03-12T18:57:26.287Z,4.03
2018-03-12T18:59:53.802Z,3.80
2018-03-12T19:02:21.332Z,3.60
2018-03-12T19:04:48.911Z,2.50
2018-03-12T19:07:16.397Z,2.10
2018-03-12T19:09:44.690Z,3.37
2018-03-12T19:12:12.949Z,2.37
2018-03-12T19:14:40.512Z,3.40
2018-03-12T19:17:08.028Z,2.50
2018-03-12T19:19:36.328Z,2.00
2018-03-12T19:22:03.877Z,1.60
2018-03-12T19:24:31.424Z,1.20
2018-03-12T19:27:00.695Z,1.90
2018-03-12T19:29:28.344Z,1.97
2018-03-12T19:31:56.606Z,2.00
2018-03-12T19:34:24.289Z,2.10
2018-03-12T19:36:51.902Z,1.30
2018-03-12T19:39:19.746Z,1.20
2018-03-12T19:41:48.364Z,1.30
2018-03-12T19:44:16.012Z,1.30
2018-03-12T19:46:43.837Z,1.40
2018-03-12T19:49:11.578Z,1.00
2018-03-12T19:51:40.200Z,1.30
2018-03-12T19:54:07.939Z,1.33
2018-03-12T19:56:35.740Z,1.10
2018-03-12T19:59:03.724Z,1.37
2018-03-12T20:01:31.484Z,1.37
2018-03-12T20:03:59.410Z,1.30
2018-03-12T20:06:27.168Z,0.90
2018-03-12T20:08:55.726Z,1.20
2018-03-12T20:11:23.577Z,1.80
2018-03-12T20:13:51.378Z,1.20
2018-03-12T20:16:20.141Z,1.70
2018-03-12T20:18:48.042Z,1.97
2018-03-12T20:21:16.515Z,1.90
2018-03-12T20:23:44.333Z,1.70
2018-03-12T20:26:12.321Z,1.90
2018-03-12T20:28:40.207Z,2.43
2018-03-12T20:31:08.005Z,2.10
2018-03-12T20:33:35.871Z,2.47
2018-03-12T20:36:04.518Z,1.93
2018-03-12T20:38:32.426Z,1.30
2018-03-12T20:41:00.300Z,1.47
2018-03-12T20:43:28.078Z,1.37
2018-03-12T20:45:55.903Z,1.10
2018-03-12T20:48:23.710Z,1.20
2018-03-12T20:50:51.434Z,1.40
2018-03-12T20:53:19.899Z,1.63
2018-03-12T20:55:47.615Z,1.60
2018-03-12T20:58:16.181Z,1.43
2018-03-12T21:00:43.939Z,1.00
2018-03-12T21:03:11.735Z,1.40
2018-03-12T21:05:39.671Z,1.20
2018-03-12T21:08:07.541Z,1.53
2018-03-12T21:10:35.550Z,1.40
2018-03-12T21:13:03.331Z,1.40
2018-03-12T21:15:31.761Z,1.43
2018-03-12T21:17:59.581Z,1.40
2018-03-12T21:20:27.123Z,1.33
2018-03-12T21:22:54.777Z,1.27
2018-03-12T21:25:22.290Z,0.80
2018-03-12T21:27:49.811Z,0.50
2018-03-12T21:30:17.331Z,0.63
2018-03-12T21:32:44.871Z,0.90
2018-03-12T21:35:12.359Z,0.60
2018-03-12T21:37:39.876Z,0.77
2018-03-12T21:40:07.376Z,0.60
2018-03-12T21:42:34.894Z,0.50
2018-03-12T21:45:02.382Z,0.80
2018-03-12T21:47:30.635Z,0.73
2018-03-12T21:49:58.180Z,0.50
2018-03-12T21:52:25.672Z,0.50
2018-03-12T21:54:53.187Z,0.47
2018-03-12T21:57:20.692Z,0.70
2018-03-12T21:59:48.200Z,0.53
2018-03-12T22:02:15.698Z,0.60
2018-03-12T22:04:43.982Z,0.80
2018-03-12T22:07:11.465Z,0.77
2018-03-12T22:09:38.976Z,0.90
2018-03-12T22:12:06.456Z,0.77
2018-03-12T22:14:33.966Z,1.00
2018-03-12T22:17:02.211Z,0.80
2018-03-12T22:19:29.744Z,0.80
2018-03-12T22:21:57.220Z,0.50
2018-03-12T22:24:24.728Z,0.70
2018-03-12T22:26:52.225Z,0.50
2018-03-12T22:29:19.732Z,0.50
2018-03-12T22:31:47.227Z,0.60
2018-03-12T22:34:14.744Z,0.50
2018-03-12T22:36:43.036Z,0.40
2018-03-12T22:39:11.314Z,0.70
2018-03-12T22:41:38.790Z,0.37
2018-03-12T22:44:06.324Z,0.40
2018-03-12T22:46:33.820Z,0.70
2018-03-12T22:49:01.381Z,0.63
2018-03-12T22:51:28.851Z,0.60
2018-03-12T22:53:56.372Z,0.50
2018-03-12T22:56:23.903Z,0.60
2018-03-12T22:58:51.428Z,0.40
2018-03-12T23:01:18.922Z,0.50
2018-03-12T23:03:46.432Z,0.50
2018-03-12T23:06:13.904Z,0.43
2018-03-12T23:08:41.420Z,0.47
2018-03-12T23:11:08.921Z,0.50
2018-03-12T23:13:36.420Z,0.50
2018-03-12T23:16:03.913Z,0.30
2018-03-12T23:18:31.435Z,0.60
2018-03-12T23:20:58.931Z,0.60
2018-03-12T23:23:26.453Z,0.67
2018-03-12T23:25:53.976Z,0.40
2018-03-12T23:28:21.492Z,0.47
2018-03-12T23:30:48.992Z,0.60
2018-03-12T23:33:16.505Z,0.60
2018-03-12T23:35:44.762Z,0.53
2018-03-12T23:38:12.284Z,0.67
2018-03-12T23:40:39.778Z,0.40
2018-03-12T23:43:07.288Z,0.63
2018-03-12T23:45:34.816Z,0.50
2018-03-12T23:48:02.304Z,0.77
2018-03-12T23:50:29.788Z,0.60
2018-03-12T23:52:57.308Z,0.50
2018-03-12T23:55:24.827Z,0.50
2018-03-12T23:57:52.316Z,0.70
